sensor_id;sensor_type;location;lat;lon;timestamp;P1;durP1;ratioP1;P2;durP2;ratioP2
34896;SDS011;43407;51.828;-2.298;2023-11-21T00:00:25;1.10;;;0.45;;
34896;SDS011;43407;51.828;-2.298;2023-11-21T00:02:51;0.90;;;0.50;;
34896;SDS011;43407;51.828;-2.298;2023-11-21T00:05:16;0.45;;;0.40;;
34896;SDS011;43407;51.828;-2.298;2023-11-21T00:07:42;0.73;;;0.50;;
34896;SDS011;43407;51.828;-2.298;2023-11-21T00:10:08;0.40;;;0.40;;
34896;SDS011;43407;51.828;-2.298;2023-11-21T00:12:35;0.70;;;0.50;;
34896;SDS011;43407;51.828;-2.298;2023-11-21T00:15:01;1.10;;;0.50;;
34896;SDS011;43407;51.828;-2.298;2023-11-21T00:17:27;0.45;;;0.40;;
34896;SDS011;43407;51.828;-2.298;2023-11-21T00:19:52;1.50;;;0.40;;
34896;SDS011;43407;51.828;-2.298;2023-11-21T00:22:18;0.38;;;0.38;;
34896;SDS011;43407;51.828;-2.298;2023-11-21T00:24:44;1.27;;;0.60;;
34896;SDS011;43407;51.828;-2.298;2023-11-21T00:27:09;0.70;;;0.50;;
34896;SDS011;43407;51.828;-2.298;2023-11-21T00:29:35;0.70;;;0.57;;
34896;SDS011;43407;51.828;-2.298;2023-11-21T00:32:00;0.65;;;0.60;;
34896;SDS011;43407;51.828;-2.298;2023-11-21T00:34:26;1.33;;;0.50;;
34896;SDS011;43407;51.828;-2.298;2023-11-21T00:36:52;0.85;;;0.60;;
34896;SDS011;43407;51.828;-2.298;2023-11-21T00:39:17;1.92;;;0.55;;
34896;SDS011;43407;51.828;-2.298;2023-11-21T00:41:43;1.15;;;0.50;;
34896;SDS011;43407;51.828;-2.298;2023-11-21T00:44:09;1.05;;;0.60;;
34896;SDS011;43407;51.828;-2.298;2023-11-21T00:46:35;0.88;;;0.60;;
34896;SDS011;43407;51.828;-2.298;2023-11-21T00:49:01;1.15;;;0.60;;
34896;SDS011;43407;51.828;-2.298;2023-11-21T00:51:26;1.33;;;0.70;;
34896;SDS011;43407;51.828;-2.298;2023-11-21T00:53:52;1.10;;;0.52;;
34896;SDS011;43407;51.828;-2.298;2023-11-21T00:56:18;0.68;;;0.68;;
34896;SDS011;43407;51.828;-2.298;2023-11-21T00:58:44;2.35;;;0.80;;
34896;SDS011;43407;51.828;-2.298;2023-11-21T01:01:14;1.23;;;0.63;;
34896;SDS011;43407;51.828;-2.298;2023-11-21T01:03:40;2.08;;;0.77;;
34896;SDS011;43407;51.828;-2.298;2023-11-21T01:06:06;0.82;;;0.60;;
34896;SDS011;43407;51.828;-2.298;2023-11-21T01:08:32;0.75;;;0.75;;
34896;SDS011;43407;51.828;-2.298;2023-11-21T01:10:57;0.50;;;0.50;;
34896;SDS011;43407;51.828;-2.298;2023-11-21T01:13:23;0.93;;;0.63;;
34896;SDS011;43407;51.828;-2.298;2023-11-21T01:15:48;0.43;;;0.43;;
34896;SDS011;43407;51.828;-2.298;2023-11-21T01:18:14;0.80;;;0.80;;
34896;SDS011;43407;51.828;-2.298;2023-11-21T01:20:39;0.68;;;0.60;;
34896;SDS011;43407;51.828;-2.298;2023-11-21T01:23:05;0.60;;;0.60;;
34896;SDS011;43407;51.828;-2.298;2023-11-21T01:25:30;0.70;;;0.70;;
34896;SDS011;43407;51.828;-2.298;2023-11-21T01:27:56;0.60;;;0.60;;
34896;SDS011;43407;51.828;-2.298;2023-11-21T01:30:21;1.50;;;0.60;;
34896;SDS011;43407;51.828;-2.298;2023-11-21T01:32:47;0.93;;;0.50;;
34896;SDS011;43407;51.828;-2.298;2023-11-21T01:35:12;1.27;;;0.75;;
34896;SDS011;43407;51.828;-2.298;2023-11-21T01:37:38;0.70;;;0.68;;
34896;SDS011;43407;51.828;-2.298;2023-11-21T01:40:04;0.82;;;0.68;;
34896;SDS011;43407;51.828;-2.298;2023-11-21T01:42:35;1.55;;;0.70;;
34896;SDS011;43407;51.828;-2.298;2023-11-21T01:45:01;0.70;;;0.65;;
34896;SDS011;43407;51.828;-2.298;2023-11-21T01:47:30;0.88;;;0.60;;
34896;SDS011;43407;51.828;-2.298;2023-11-21T01:49:56;0.75;;;0.60;;
34896;SDS011;43407;51.828;-2.298;2023-11-21T01:52:21;0.50;;;0.50;;
34896;SDS011;43407;51.828;-2.298;2023-11-21T01:54:47;1.55;;;0.70;;
34896;SDS011;43407;51.828;-2.298;2023-11-21T01:57:12;0.60;;;0.60;;
34896;SDS011;43407;51.828;-2.298;2023-11-21T01:59:38;0.65;;;0.50;;
34896;SDS011;43407;51.828;-2.298;2023-11-21T02:02:07;0.60;;;0.60;;
34896;SDS011;43407;51.828;-2.298;2023-11-21T02:04:33;0.90;;;0.50;;
34896;SDS011;43407;51.828;-2.298;2023-11-21T02:06:59;0.80;;;0.80;;
34896;SDS011;43407;51.828;-2.298;2023-11-21T02:09:28;1.33;;;0.70;;
34896;SDS011;43407;51.828;-2.298;2023-11-21T02:11:55;1.30;;;0.80;;
34896;SDS011;43407;51.828;-2.298;2023-11-21T02:14:21;0.90;;;0.80;;
34896;SDS011;43407;51.828;-2.298;2023-11-21T02:16:50;1.00;;;0.90;;
34896;SDS011;43407;51.828;-2.298;2023-11-21T02:19:20;1.30;;;0.90;;
34896;SDS011;43407;51.828;-2.298;2023-11-21T02:21:54;0.80;;;0.80;;
34896;SDS011;43407;51.828;-2.298;2023-11-21T02:24:24;1.83;;;1.15;;
34896;SDS011;43407;51.828;-2.298;2023-11-21T02:26:50;2.28;;;1.60;;
34896;SDS011;43407;51.828;-2.298;2023-11-21T02:29:19;1.70;;;1.55;;
34896;SDS011;43407;51.828;-2.298;2023-11-21T02:31:47;1.35;;;1.25;;
34896;SDS011;43407;51.828;-2.298;2023-11-21T02:34:17;2.00;;;1.80;;
34896;SDS011;43407;51.828;-2.298;2023-11-21T02:36:46;2.25;;;1.60;;
34896;SDS011;43407;51.828;-2.298;2023-11-21T02:39:12;3.03;;;2.00;;
34896;SDS011;43407;51.828;-2.298;2023-11-21T02:41:38;2.40;;;2.20;;
34896;SDS011;43407;51.828;-2.298;2023-11-21T02:44:04;2.20;;;2.00;;
34896;SDS011;43407;51.828;-2.298;2023-11-21T02:46:31;2.30;;;2.10;;
34896;SDS011;43407;51.828;-2.298;2023-11-21T02:48:59;3.72;;;2.40;;
34896;SDS011;43407;51.828;-2.298;2023-11-21T02:51:25;2.70;;;2.50;;
34896;SDS011;43407;51.828;-2.298;2023-11-21T02:53:50;2.88;;;2.60;;
34896;SDS011;43407;51.828;-2.298;2023-11-21T02:56:16;4.43;;;2.78;;
34896;SDS011;43407;51.828;-2.298;2023-11-21T02:58:42;2.88;;;2.67;;
34896;SDS011;43407;51.828;-2.298;2023-11-21T03:01:11;2.72;;;2.47;;
34896;SDS011;43407;51.828;-2.298;2023-11-21T03:03:38;2.70;;;2.50;;
34896;SDS011;43407;51.828;-2.298;2023-11-21T03:06:05;2.83;;;2.63;;
34896;SDS011;43407;51.828;-2.298;2023-11-21T03:08:31;2.70;;;2.50;;
34896;SDS011;43407;51.828;-2.298;2023-11-21T03:10:57;2.90;;;2.70;;
34896;SDS011;43407;51.828;-2.298;2023-11-21T03:13:23;3.50;;;3.20;;
34896;SDS011;43407;51.828;-2.298;2023-11-21T03:15:48;3.33;;;3.13;;
34896;SDS011;43407;51.828;-2.298;2023-11-21T03:18:14;4.63;;;3.65;;
34896;SDS011;43407;51.828;-2.298;2023-11-21T03:20:39;4.13;;;3.83;;
34896;SDS011;43407;51.828;-2.298;2023-11-21T03:23:05;4.05;;;3.75;;
34896;SDS011;43407;51.828;-2.298;2023-11-21T03:25:30;4.20;;;3.90;;
34896;SDS011;43407;51.828;-2.298;2023-11-21T03:27:56;4.45;;;4.05;;
34896;SDS011;43407;51.828;-2.298;2023-11-21T03:30:21;3.85;;;3.55;;
34896;SDS011;43407;51.828;-2.298;2023-11-21T03:32:47;3.40;;;3.10;;
34896;SDS011;43407;51.828;-2.298;2023-11-21T03:35:12;2.80;;;2.60;;
34896;SDS011;43407;51.828;-2.298;2023-11-21T03:37:38;2.63;;;2.42;;
34896;SDS011;43407;51.828;-2.298;2023-11-21T03:40:06;3.25;;;2.20;;
34896;SDS011;43407;51.828;-2.298;2023-11-21T03:42:33;2.00;;;1.90;;
34896;SDS011;43407;51.828;-2.298;2023-11-21T03:44:59;2.35;;;2.00;;
34896;SDS011;43407;51.828;-2.298;2023-11-21T03:47:25;2.08;;;1.80;;
34896;SDS011;43407;51.828;-2.298;2023-11-21T03:49:51;2.42;;;2.08;;
34896;SDS011;43407;51.828;-2.298;2023-11-21T03:52:17;1.80;;;1.70;;
34896;SDS011;43407;51.828;-2.298;2023-11-21T03:54:42;1.77;;;1.45;;
34896;SDS011;43407;51.828;-2.298;2023-11-21T03:57:08;1.60;;;1.50;;
34896;SDS011;43407;51.828;-2.298;2023-11-21T03:59:34;1.60;;;1.38;;
34896;SDS011;43407;51.828;-2.298;2023-11-21T04:02:00;2.58;;;1.20;;
34896;SDS011;43407;51.828;-2.298;2023-11-21T04:04:25;1.73;;;0.95;;
34896;SDS011;43407;51.828;-2.298;2023-11-21T04:06:51;0.80;;;0.80;;
34896;SDS011;43407;51.828;-2.298;2023-11-21T04:09:19;2.92;;;1.05;;
34896;SDS011;43407;51.828;-2.298;2023-11-21T04:11:44;1.75;;;0.90;;
34896;SDS011;43407;51.828;-2.298;2023-11-21T04:14:10;0.85;;;0.80;;
34896;SDS011;43407;51.828;-2.298;2023-11-21T04:16:36;0.85;;;0.80;;
34896;SDS011;43407;51.828;-2.298;2023-11-21T04:19:01;3.50;;;0.93;;
34896;SDS011;43407;51.828;-2.298;2023-11-21T04:21:27;0.80;;;0.80;;
34896;SDS011;43407;51.828;-2.298;2023-11-21T04:23:52;1.20;;;0.80;;
34896;SDS011;43407;51.828;-2.298;2023-11-21T04:26:18;1.10;;;1.00;;
34896;SDS011;43407;51.828;-2.298;2023-11-21T04:28:43;0.80;;;0.75;;
34896;SDS011;43407;51.828;-2.298;2023-11-21T04:31:09;0.70;;;0.70;;
34896;SDS011;43407;51.828;-2.298;2023-11-21T04:33:35;1.13;;;0.90;;
34896;SDS011;43407;51.828;-2.298;2023-11-21T04:36:01;0.70;;;0.70;;
34896;SDS011;43407;51.828;-2.298;2023-11-21T04:38:26;0.75;;;0.63;;
34896;SDS011;43407;51.828;-2.298;2023-11-21T04:40:52;1.02;;;0.80;;
34896;SDS011;43407;51.828;-2.298;2023-11-21T04:43:17;0.77;;;0.77;;
34896;SDS011;43407;51.828;-2.298;2023-11-21T04:45:43;2.95;;;1.13;;
34896;SDS011;43407;51.828;-2.298;2023-11-21T04:48:09;0.60;;;0.60;;
34896;SDS011;43407;51.828;-2.298;2023-11-21T04:50:35;0.57;;;0.57;;
34896;SDS011;43407;51.828;-2.298;2023-11-21T04:53:00;1.23;;;0.50;;
34896;SDS011;43407;51.828;-2.298;2023-11-21T04:55:26;1.55;;;0.43;;
34896;SDS011;43407;51.828;-2.298;2023-11-21T04:57:53;0.50;;;0.50;;
34896;SDS011;43407;51.828;-2.298;2023-11-21T05:00:18;0.93;;;0.50;;
34896;SDS011;43407;51.828;-2.298;2023-11-21T05:02:45;0.73;;;0.70;;
34896;SDS011;43407;51.828;-2.298;2023-11-21T05:05:10;0.40;;;0.40;;
34896;SDS011;43407;51.828;-2.298;2023-11-21T05:07:36;0.70;;;0.70;;
34896;SDS011;43407;51.828;-2.298;2023-11-21T05:10:03;0.52;;;0.52;;
34896;SDS011;43407;51.828;-2.298;2023-11-21T05:12:33;0.90;;;0.70;;
34896;SDS011;43407;51.828;-2.298;2023-11-21T05:15:01;0.77;;;0.70;;
34896;SDS011;43407;51.828;-2.298;2023-11-21T05:17:32;0.90;;;0.90;;
34896;SDS011;43407;51.828;-2.298;2023-11-21T05:19:59;1.10;;;0.85;;
34896;SDS011;43407;51.828;-2.298;2023-11-21T05:22:28;0.75;;;0.63;;
34896;SDS011;43407;51.828;-2.298;2023-11-21T05:24:54;1.23;;;0.70;;
34896;SDS011;43407;51.828;-2.298;2023-11-21T05:27:19;0.70;;;0.70;;
34896;SDS011;43407;51.828;-2.298;2023-11-21T05:29:45;1.38;;;0.93;;
34896;SDS011;43407;51.828;-2.298;2023-11-21T05:32:10;1.25;;;0.60;;
34896;SDS011;43407;51.828;-2.298;2023-11-21T05:34:36;1.67;;;0.70;;
34896;SDS011;43407;51.828;-2.298;2023-11-21T05:37:01;0.65;;;0.45;;
34896;SDS011;43407;51.828;-2.298;2023-11-21T05:39:27;1.90;;;0.65;;
34896;SDS011;43407;51.828;-2.298;2023-11-21T05:41:53;0.60;;;0.60;;
34896;SDS011;43407;51.828;-2.298;2023-11-21T05:44:18;0.68;;;0.50;;
34896;SDS011;43407;51.828;-2.298;2023-11-21T05:46:44;1.85;;;0.63;;
34896;SDS011;43407;51.828;-2.298;2023-11-21T05:49:10;2.05;;;0.60;;
34896;SDS011;43407;51.828;-2.298;2023-11-21T05:51:36;1.10;;;0.77;;
34896;SDS011;43407;51.828;-2.298;2023-11-21T05:54:02;1.75;;;0.70;;
34896;SDS011;43407;51.828;-2.298;2023-11-21T05:56:28;1.35;;;0.65;;
34896;SDS011;43407;51.828;-2.298;2023-11-21T05:58:53;0.93;;;0.70;;
34896;SDS011;43407;51.828;-2.298;2023-11-21T06:01:19;0.50;;;0.50;;
34896;SDS011;43407;51.828;-2.298;2023-11-21T06:03:44;1.25;;;0.60;;
34896;SDS011;43407;51.828;-2.298;2023-11-21T06:06:10;0.60;;;0.60;;
34896;SDS011;43407;51.828;-2.298;2023-11-21T06:08:36;1.77;;;0.80;;
34896;SDS011;43407;51.828;-2.298;2023-11-21T06:11:01;0.70;;;0.70;;
34896;SDS011;43407;51.828;-2.298;2023-11-21T06:13:27;1.25;;;0.60;;
34896;SDS011;43407;51.828;-2.298;2023-11-21T06:15:52;0.70;;;0.70;;
34896;SDS011;43407;51.828;-2.298;2023-11-21T06:18:18;0.65;;;0.50;;
34896;SDS011;43407;51.828;-2.298;2023-11-21T06:20:45;1.08;;;0.55;;
34896;SDS011;43407;51.828;-2.298;2023-11-21T06:23:11;0.68;;;0.50;;
34896;SDS011;43407;51.828;-2.298;2023-11-21T06:25:36;0.60;;;0.60;;
34896;SDS011;43407;51.828;-2.298;2023-11-21T06:28:02;0.98;;;0.52;;
34896;SDS011;43407;51.828;-2.298;2023-11-21T06:30:27;0.50;;;0.50;;
34896;SDS011;43407;51.828;-2.298;2023-11-21T06:32:54;0.85;;;0.50;;
34896;SDS011;43407;51.828;-2.298;2023-11-21T06:35:20;0.98;;;0.60;;
34896;SDS011;43407;51.828;-2.298;2023-11-21T06:37:45;1.35;;;0.70;;
34896;SDS011;43407;51.828;-2.298;2023-11-21T06:40:13;0.95;;;0.60;;
34896;SDS011;43407;51.828;-2.298;2023-11-21T06:42:40;1.77;;;0.70;;
34896;SDS011;43407;51.828;-2.298;2023-11-21T06:45:06;0.50;;;0.50;;
34896;SDS011;43407;51.828;-2.298;2023-11-21T06:47:32;0.95;;;0.50;;
34896;SDS011;43407;51.828;-2.298;2023-11-21T06:49:58;0.50;;;0.50;;
34896;SDS011;43407;51.828;-2.298;2023-11-21T06:52:24;0.50;;;0.50;;
34896;SDS011;43407;51.828;-2.298;2023-11-21T06:54:49;1.92;;;0.70;;
34896;SDS011;43407;51.828;-2.298;2023-11-21T06:57:15;0.98;;;0.60;;
34896;SDS011;43407;51.828;-2.298;2023-11-21T06:59:40;0.63;;;0.40;;
34896;SDS011;43407;51.828;-2.298;2023-11-21T07:02:06;2.35;;;0.50;;
34896;SDS011;43407;51.828;-2.298;2023-11-21T07:04:32;0.73;;;0.57;;
34896;SDS011;43407;51.828;-2.298;2023-11-21T07:07:02;1.05;;;0.40;;
34896;SDS011;43407;51.828;-2.298;2023-11-21T07:09:28;0.57;;;0.40;;
34896;SDS011;43407;51.828;-2.298;2023-11-21T07:11:54;0.55;;;0.43;;
34896;SDS011;43407;51.828;-2.298;2023-11-21T07:14:20;1.05;;;0.50;;
34896;SDS011;43407;51.828;-2.298;2023-11-21T07:16:46;0.82;;;0.43;;
34896;SDS011;43407;51.828;-2.298;2023-11-21T07:19:12;1.75;;;0.40;;
34896;SDS011;43407;51.828;-2.298;2023-11-21T07:21:37;3.25;;;0.60;;
34896;SDS011;43407;51.828;-2.298;2023-11-21T07:24:04;1.95;;;0.40;;
34896;SDS011;43407;51.828;-2.298;2023-11-21T07:26:31;0.50;;;0.50;;
34896;SDS011;43407;51.828;-2.298;2023-11-21T07:28:57;0.85;;;0.50;;
34896;SDS011;43407;51.828;-2.298;2023-11-21T07:31:22;0.57;;;0.50;;
34896;SDS011;43407;51.828;-2.298;2023-11-21T07:33:49;1.38;;;0.60;;
34896;SDS011;43407;51.828;-2.298;2023-11-21T07:36:15;1.02;;;0.60;;
34896;SDS011;43407;51.828;-2.298;2023-11-21T07:38:41;0.60;;;0.47;;
34896;SDS011;43407;51.828;-2.298;2023-11-21T07:41:07;3.00;;;0.50;;
34896;SDS011;43407;51.828;-2.298;2023-11-21T07:43:35;2.17;;;0.60;;
34896;SDS011;43407;51.828;-2.298;2023-11-21T07:46:01;1.02;;;0.50;;
34896;SDS011;43407;51.828;-2.298;2023-11-21T07:48:28;1.73;;;0.47;;
34896;SDS011;43407;51.828;-2.298;2023-11-21T07:50:54;1.10;;;0.50;;
34896;SDS011;43407;51.828;-2.298;2023-11-21T07:53:20;0.75;;;0.50;;
34896;SDS011;43407;51.828;-2.298;2023-11-21T07:55:47;0.65;;;0.50;;
34896;SDS011;43407;51.828;-2.298;2023-11-21T07:58:12;1.60;;;0.70;;
34896;SDS011;43407;51.828;-2.298;2023-11-21T08:00:38;0.85;;;0.80;;
34896;SDS011;43407;51.828;-2.298;2023-11-21T08:03:04;1.85;;;0.70;;
34896;SDS011;43407;51.828;-2.298;2023-11-21T08:05:30;1.27;;;0.63;;
34896;SDS011;43407;51.828;-2.298;2023-11-21T08:07:56;1.05;;;0.90;;
34896;SDS011;43407;51.828;-2.298;2023-11-21T08:10:22;2.10;;;0.90;;
34896;SDS011;43407;51.828;-2.298;2023-11-21T08:12:48;2.00;;;0.90;;
34896;SDS011;43407;51.828;-2.298;2023-11-21T08:15:15;3.17;;;1.25;;
34896;SDS011;43407;51.828;-2.298;2023-11-21T08:17:41;1.40;;;0.90;;
34896;SDS011;43407;51.828;-2.298;2023-11-21T08:20:06;2.55;;;0.85;;
34896;SDS011;43407;51.828;-2.298;2023-11-21T08:22:33;3.15;;;0.88;;
34896;SDS011;43407;51.828;-2.298;2023-11-21T08:24:59;0.80;;;0.70;;
34896;SDS011;43407;51.828;-2.298;2023-11-21T08:27:25;2.03;;;0.82;;
34896;SDS011;43407;51.828;-2.298;2023-11-21T08:29:50;1.63;;;0.80;;
34896;SDS011;43407;51.828;-2.298;2023-11-21T08:32:17;1.38;;;0.88;;
34896;SDS011;43407;51.828;-2.298;2023-11-21T08:34:43;1.02;;;0.80;;
34896;SDS011;43407;51.828;-2.298;2023-11-21T08:37:10;1.25;;;0.70;;
34896;SDS011;43407;51.828;-2.298;2023-11-21T08:39:39;1.13;;;0.80;;
34896;SDS011;43407;51.828;-2.298;2023-11-21T08:42:05;1.40;;;0.60;;
34896;SDS011;43407;51.828;-2.298;2023-11-21T08:44:31;1.00;;;0.85;;
34896;SDS011;43407;51.828;-2.298;2023-11-21T08:46:56;2.35;;;1.10;;
34896;SDS011;43407;51.828;-2.298;2023-11-21T08:49:22;0.95;;;0.80;;
34896;SDS011;43407;51.828;-2.298;2023-11-21T08:51:47;2.00;;;0.80;;
34896;SDS011;43407;51.828;-2.298;2023-11-21T08:54:13;3.45;;;0.95;;
34896;SDS011;43407;51.828;-2.298;2023-11-21T08:56:39;4.30;;;1.00;;
34896;SDS011;43407;51.828;-2.298;2023-11-21T08:59:05;0.98;;;0.88;;
34896;SDS011;43407;51.828;-2.298;2023-11-21T09:01:31;1.40;;;0.82;;
34896;SDS011;43407;51.828;-2.298;2023-11-21T09:03:57;0.98;;;0.80;;
34896;SDS011;43407;51.828;-2.298;2023-11-21T09:06:23;0.85;;;0.80;;
34896;SDS011;43407;51.828;-2.298;2023-11-21T09:08:49;3.05;;;0.93;;
34896;SDS011;43407;51.828;-2.298;2023-11-21T09:11:15;1.15;;;0.80;;
34896;SDS011;43407;51.828;-2.298;2023-11-21T09:13:40;3.10;;;0.85;;
34896;SDS011;43407;51.828;-2.298;2023-11-21T09:16:06;1.08;;;0.80;;
34896;SDS011;43407;51.828;-2.298;2023-11-21T09:18:32;0.98;;;0.82;;
34896;SDS011;43407;51.828;-2.298;2023-11-21T09:20:57;3.00;;;0.80;;
34896;SDS011;43407;51.828;-2.298;2023-11-21T09:23:23;2.78;;;0.80;;
34896;SDS011;43407;51.828;-2.298;2023-11-21T09:25:49;2.05;;;0.80;;
34896;SDS011;43407;51.828;-2.298;2023-11-21T09:28:17;3.05;;;0.77;;
34896;SDS011;43407;51.828;-2.298;2023-11-21T09:30:43;3.35;;;1.13;;
34896;SDS011;43407;51.828;-2.298;2023-11-21T09:33:09;3.60;;;1.10;;
34896;SDS011;43407;51.828;-2.298;2023-11-21T09:35:38;1.23;;;0.88;;
34896;SDS011;43407;51.828;-2.298;2023-11-21T09:38:04;1.00;;;0.85;;
34896;SDS011;43407;51.828;-2.298;2023-11-21T09:40:35;1.20;;;0.90;;
34896;SDS011;43407;51.828;-2.298;2023-11-21T09:43:00;2.80;;;0.80;;
34896;SDS011;43407;51.828;-2.298;2023-11-21T09:45:36;2.70;;;0.80;;
34896;SDS011;43407;51.828;-2.298;2023-11-21T09:48:04;1.60;;;0.88;;
34896;SDS011;43407;51.828;-2.298;2023-11-21T09:50:31;2.92;;;1.10;;
34896;SDS011;43407;51.828;-2.298;2023-11-21T09:55:43;0.70;;;0.70;;
34896;SDS011;43407;51.828;-2.298;2023-11-21T09:58:10;2.45;;;1.00;;
34896;SDS011;43407;51.828;-2.298;2023-11-21T10:00:46;1.35;;;0.85;;
34896;SDS011;43407;51.828;-2.298;2023-11-21T10:03:12;2.95;;;0.82;;
34896;SDS011;43407;51.828;-2.298;2023-11-21T10:05:39;3.63;;;0.90;;
34896;SDS011;43407;51.828;-2.298;2023-11-21T10:08:07;2.53;;;0.80;;
34896;SDS011;43407;51.828;-2.298;2023-11-21T10:10:33;2.25;;;1.25;;
34896;SDS011;43407;51.828;-2.298;2023-11-21T10:13:01;3.17;;;0.90;;
34896;SDS011;43407;51.828;-2.298;2023-11-21T10:15:31;3.30;;;1.00;;
34896;SDS011;43407;51.828;-2.298;2023-11-21T10:17:59;2.33;;;0.82;;
34896;SDS011;43407;51.828;-2.298;2023-11-21T10:20:31;1.15;;;1.00;;
34896;SDS011;43407;51.828;-2.298;2023-11-21T10:22:58;1.75;;;1.00;;
34896;SDS011;43407;51.828;-2.298;2023-11-21T10:25:24;1.83;;;1.30;;
34896;SDS011;43407;51.828;-2.298;2023-11-21T10:27:54;1.50;;;1.10;;
34896;SDS011;43407;51.828;-2.298;2023-11-21T10:30:24;2.27;;;0.90;;
34896;SDS011;43407;51.828;-2.298;2023-11-21T10:32:58;1.42;;;0.77;;
34896;SDS011;43407;51.828;-2.298;2023-11-21T10:35:25;2.60;;;1.15;;
34896;SDS011;43407;51.828;-2.298;2023-11-21T10:38:16;1.80;;;1.05;;
34896;SDS011;43407;51.828;-2.298;2023-11-21T10:40:42;3.42;;;1.08;;
34896;SDS011;43407;51.828;-2.298;2023-11-21T10:43:11;2.58;;;1.00;;
34896;SDS011;43407;51.828;-2.298;2023-11-21T10:45:38;1.77;;;0.70;;
34896;SDS011;43407;51.828;-2.298;2023-11-21T10:48:07;1.40;;;0.90;;
34896;SDS011;43407;51.828;-2.298;2023-11-21T10:50:37;1.45;;;0.73;;
34896;SDS011;43407;51.828;-2.298;2023-11-21T10:53:03;4.13;;;0.85;;
34896;SDS011;43407;51.828;-2.298;2023-11-21T10:55:30;1.48;;;0.90;;
34896;SDS011;43407;51.828;-2.298;2023-11-21T10:57:58;1.50;;;0.93;;
34896;SDS011;43407;51.828;-2.298;2023-11-21T11:00:24;1.42;;;0.90;;
34896;SDS011;43407;51.828;-2.298;2023-11-21T11:02:52;1.20;;;0.90;;
34896;SDS011;43407;51.828;-2.298;2023-11-21T11:05:22;3.05;;;1.10;;
34896;SDS011;43407;51.828;-2.298;2023-11-21T11:07:52;1.52;;;1.00;;
34896;SDS011;43407;51.828;-2.298;2023-11-21T11:10:26;2.42;;;1.00;;
34896;SDS011;43407;51.828;-2.298;2023-11-21T11:12:54;3.25;;;0.90;;
34896;SDS011;43407;51.828;-2.298;2023-11-21T11:15:20;1.02;;;0.80;;
34896;SDS011;43407;51.828;-2.298;2023-11-21T11:17:46;2.38;;;0.93;;
34896;SDS011;43407;51.828;-2.298;2023-11-21T11:20:15;1.58;;;1.05;;
34896;SDS011;43407;51.828;-2.298;2023-11-21T11:22:44;2.70;;;1.38;;
34896;SDS011;43407;51.828;-2.298;2023-11-21T11:27:55;2.28;;;1.02;;
34896;SDS011;43407;51.828;-2.298;2023-11-21T11:35:38;1.15;;;1.00;;
34896;SDS011;43407;51.828;-2.298;2023-11-21T11:38:12;2.25;;;1.20;;
34896;SDS011;43407;51.828;-2.298;2023-11-21T11:40:44;2.38;;;1.30;;
34896;SDS011;43407;51.828;-2.298;2023-11-21T11:43:10;3.53;;;1.20;;
34896;SDS011;43407;51.828;-2.298;2023-11-21T11:45:36;1.88;;;1.10;;
34896;SDS011;43407;51.828;-2.298;2023-11-21T11:48:06;4.97;;;1.27;;
34896;SDS011;43407;51.828;-2.298;2023-11-21T11:50:32;2.20;;;0.90;;
34896;SDS011;43407;51.828;-2.298;2023-11-21T11:53:11;3.70;;;1.10;;
34896;SDS011;43407;51.828;-2.298;2023-11-21T11:55:38;2.10;;;1.20;;
34896;SDS011;43407;51.828;-2.298;2023-11-21T11:58:05;2.50;;;0.95;;
34896;SDS011;43407;51.828;-2.298;2023-11-21T12:00:34;2.88;;;1.00;;
34896;SDS011;43407;51.828;-2.298;2023-11-21T12:03:03;2.72;;;1.00;;
34896;SDS011;43407;51.828;-2.298;2023-11-21T12:05:31;2.13;;;1.00;;
34896;SDS011;43407;51.828;-2.298;2023-11-21T12:08:07;2.10;;;0.93;;
34896;SDS011;43407;51.828;-2.298;2023-11-21T12:10:37;1.55;;;1.00;;
34896;SDS011;43407;51.828;-2.298;2023-11-21T12:13:06;2.63;;;1.20;;
34896;SDS011;43407;51.828;-2.298;2023-11-21T12:15:33;1.88;;;1.00;;
34896;SDS011;43407;51.828;-2.298;2023-11-21T12:18:00;2.53;;;1.00;;
34896;SDS011;43407;51.828;-2.298;2023-11-21T12:20:26;4.07;;;1.08;;
34896;SDS011;43407;51.828;-2.298;2023-11-21T12:22:56;2.83;;;1.02;;
34896;SDS011;43407;51.828;-2.298;2023-11-21T12:25:29;3.38;;;1.30;;
34896;SDS011;43407;51.828;-2.298;2023-11-21T12:27:57;1.52;;;1.00;;
34896;SDS011;43407;51.828;-2.298;2023-11-21T12:30:24;2.90;;;1.10;;
34896;SDS011;43407;51.828;-2.298;2023-11-21T12:32:54;3.63;;;1.40;;
34896;SDS011;43407;51.828;-2.298;2023-11-21T12:35:21;2.28;;;1.33;;
34896;SDS011;43407;51.828;-2.298;2023-11-21T12:37:48;3.00;;;1.35;;
34896;SDS011;43407;51.828;-2.298;2023-11-21T12:40:14;5.50;;;2.05;;
34896;SDS011;43407;51.828;-2.298;2023-11-21T12:42:44;2.28;;;1.27;;
34896;SDS011;43407;51.828;-2.298;2023-11-21T12:47:55;4.10;;;1.00;;
34896;SDS011;43407;51.828;-2.298;2023-11-21T12:50:35;3.53;;;1.00;;
34896;SDS011;43407;51.828;-2.298;2023-11-21T12:53:02;2.97;;;1.23;;
34896;SDS011;43407;51.828;-2.298;2023-11-21T12:55:33;2.58;;;1.08;;
34896;SDS011;43407;51.828;-2.298;2023-11-21T12:58:02;2.05;;;1.10;;
34896;SDS011;43407;51.828;-2.298;2023-11-21T13:00:34;3.25;;;1.10;;
34896;SDS011;43407;51.828;-2.298;2023-11-21T13:03:13;3.22;;;1.25;;
34896;SDS011;43407;51.828;-2.298;2023-11-21T13:05:45;3.00;;;1.00;;
34896;SDS011;43407;51.828;-2.298;2023-11-21T13:08:12;2.00;;;1.13;;
34896;SDS011;43407;51.828;-2.298;2023-11-21T13:10:42;2.88;;;1.17;;
34896;SDS011;43407;51.828;-2.298;2023-11-21T13:13:11;3.40;;;1.10;;
34896;SDS011;43407;51.828;-2.298;2023-11-21T13:15:47;2.28;;;1.10;;
34896;SDS011;43407;51.828;-2.298;2023-11-21T13:18:14;2.70;;;1.30;;
34896;SDS011;43407;51.828;-2.298;2023-11-21T13:20:41;1.92;;;1.10;;
34896;SDS011;43407;51.828;-2.298;2023-11-21T13:23:08;3.38;;;1.60;;
34896;SDS011;43407;51.828;-2.298;2023-11-21T13:25:37;2.50;;;1.48;;
34896;SDS011;43407;51.828;-2.298;2023-11-21T13:28:04;2.45;;;1.40;;
34896;SDS011;43407;51.828;-2.298;2023-11-21T13:30:30;2.35;;;1.45;;
34896;SDS011;43407;51.828;-2.298;2023-11-21T13:33:02;3.55;;;1.60;;
34896;SDS011;43407;51.828;-2.298;2023-11-21T13:35:36;2.30;;;1.40;;
34896;SDS011;43407;51.828;-2.298;2023-11-21T13:40:38;3.40;;;1.20;;
34896;SDS011;43407;51.828;-2.298;2023-11-21T13:43:11;1.25;;;1.10;;
34896;SDS011;43407;51.828;-2.298;2023-11-21T13:45:38;2.45;;;1.30;;
34896;SDS011;43407;51.828;-2.298;2023-11-21T13:48:07;1.63;;;1.10;;
34896;SDS011;43407;51.828;-2.298;2023-11-21T13:50:35;1.48;;;1.08;;
34896;SDS011;43407;51.828;-2.298;2023-11-21T13:53:01;3.55;;;1.30;;
34896;SDS011;43407;51.828;-2.298;2023-11-21T13:55:56;4.65;;;1.42;;
34896;SDS011;43407;51.828;-2.298;2023-11-21T13:58:26;2.05;;;1.20;;
34896;SDS011;43407;51.828;-2.298;2023-11-21T14:01:06;4.72;;;1.33;;
34896;SDS011;43407;51.828;-2.298;2023-11-21T14:03:41;1.45;;;1.35;;
34896;SDS011;43407;51.828;-2.298;2023-11-21T14:06:17;3.72;;;1.67;;
34896;SDS011;43407;51.828;-2.298;2023-11-21T14:08:50;3.03;;;1.48;;
34896;SDS011;43407;51.828;-2.298;2023-11-21T14:11:16;4.63;;;1.60;;
34896;SDS011;43407;51.828;-2.298;2023-11-21T14:13:43;3.72;;;1.40;;
34896;SDS011;43407;51.828;-2.298;2023-11-21T14:16:13;1.90;;;1.30;;
34896;SDS011;43407;51.828;-2.298;2023-11-21T14:18:39;3.13;;;1.65;;
34896;SDS011;43407;51.828;-2.298;2023-11-21T14:21:17;2.58;;;1.70;;
34896;SDS011;43407;51.828;-2.298;2023-11-21T14:23:43;2.40;;;1.70;;
34896;SDS011;43407;51.828;-2.298;2023-11-21T14:26:10;3.13;;;1.70;;
34896;SDS011;43407;51.828;-2.298;2023-11-21T14:28:39;2.75;;;1.73;;
34896;SDS011;43407;51.828;-2.298;2023-11-21T14:31:04;1.83;;;1.15;;
34896;SDS011;43407;51.828;-2.298;2023-11-21T14:33:30;2.05;;;1.50;;
34896;SDS011;43407;51.828;-2.298;2023-11-21T14:35:55;1.65;;;1.40;;
34896;SDS011;43407;51.828;-2.298;2023-11-21T14:38:22;3.97;;;1.67;;
34896;SDS011;43407;51.828;-2.298;2023-11-21T14:40:48;3.15;;;1.63;;
34896;SDS011;43407;51.828;-2.298;2023-11-21T14:43:14;3.55;;;1.60;;
34896;SDS011;43407;51.828;-2.298;2023-11-21T14:45:40;1.88;;;1.42;;
34896;SDS011;43407;51.828;-2.298;2023-11-21T14:48:06;2.88;;;1.60;;